Aviation Digital Data Service (ADDS)

Output produced by METARs form (1158 UTC 26 March 2019)
found at http://www.aviationweather.gov/metar/data/
 
KXNA 261120Z 2612/2712 00000KT 3SM BR SKC 
     TEMPO 2612/2615 1/4SM FG VV002 
     FM261600 VRB04KT P6SM SKC